createdAt,value
2018-07-06T00:01:45.614Z,15.40
2018-07-06T00:04:38.789Z,15.40
2018-07-06T00:07:31.936Z,15.40
2018-07-06T00:10:25.265Z,15.40
2018-07-06T00:13:18.285Z,15.40
2018-07-06T00:16:11.427Z,15.30
2018-07-06T00:19:04.422Z,15.30
2018-07-06T00:21:57.537Z,15.30
2018-07-06T00:24:50.654Z,15.30
2018-07-06T00:27:43.944Z,15.30
2018-07-06T00:30:37.107Z,15.30
2018-07-06T00:33:30.283Z,15.30
2018-07-06T00:36:23.698Z,15.30
2018-07-06T00:39:17.036Z,15.30
2018-07-06T00:42:10.426Z,15.30
2018-07-06T00:45:03.708Z,15.30
2018-07-06T00:47:57.183Z,15.30
2018-07-06T00:50:50.288Z,15.30
2018-07-06T00:53:43.652Z,15.30
2018-07-06T00:56:36.822Z,15.30
2018-07-06T00:59:30.195Z,15.30
2018-07-06T01:02:23.579Z,15.30
2018-07-06T01:05:16.782Z,15.30
2018-07-06T01:08:09.836Z,15.30
2018-07-06T01:11:03.064Z,15.30
2018-07-06T01:13:56.496Z,15.30
2018-07-06T01:16:49.732Z,15.30
2018-07-06T01:19:42.951Z,15.30
2018-07-06T01:22:36.286Z,15.30
2018-07-06T01:25:29.481Z,15.30
2018-07-06T01:28:22.793Z,15.40
2018-07-06T01:31:16.109Z,15.30
2018-07-06T01:34:09.186Z,15.40
2018-07-06T01:37:02.564Z,15.40
2018-07-06T01:39:55.743Z,15.40
2018-07-06T01:45:35.950Z,15.40
2018-07-06T01:48:28.925Z,15.40
2018-07-06T01:51:23.322Z,15.40
2018-07-06T01:54:16.709Z,15.40
2018-07-06T01:57:09.979Z,15.40
2018-07-06T02:00:03.054Z,15.50
2018-07-06T02:02:56.515Z,15.50
2018-07-06T02:05:49.787Z,15.50
2018-07-06T02:08:42.942Z,15.50
2018-07-06T02:11:36.210Z,15.50
2018-07-06T02:14:29.487Z,15.50
2018-07-06T02:17:22.784Z,15.50
2018-07-06T02:20:16.064Z,15.50
2018-07-06T02:23:09.432Z,15.50
2018-07-06T02:26:02.591Z,15.50
2018-07-06T02:28:56.073Z,15.40
2018-07-06T02:31:49.337Z,15.40
2018-07-06T02:34:42.603Z,15.40
2018-07-06T02:37:35.679Z,15.30
2018-07-06T02:40:28.836Z,15.40
2018-07-06T02:43:22.077Z,15.40
2018-07-06T02:46:15.237Z,15.40
2018-07-06T02:49:08.711Z,15.40
2018-07-06T02:52:01.871Z,15.40
2018-07-06T02:54:55.136Z,15.40
2018-07-06T02:57:48.300Z,15.40
2018-07-06T03:00:41.574Z,15.30
2018-07-06T03:03:34.769Z,15.40
2018-07-06T03:06:27.635Z,15.40
2018-07-06T03:09:21.163Z,15.40
2018-07-06T03:12:14.320Z,15.30
2018-07-06T03:15:07.688Z,15.40
2018-07-06T03:18:00.952Z,15.40
2018-07-06T03:20:54.248Z,15.40
2018-07-06T03:23:47.483Z,15.50
2018-07-06T03:26:40.851Z,15.50
2018-07-06T03:29:34.216Z,15.50
2018-07-06T03:32:27.467Z,15.60
2018-07-06T03:35:20.596Z,15.60
2018-07-06T03:38:13.968Z,15.60
2018-07-06T03:41:07.253Z,15.60
2018-07-06T03:44:00.434Z,15.60
2018-07-06T03:46:53.709Z,15.60
2018-07-06T03:49:47.084Z,15.60
2018-07-06T03:52:40.144Z,15.70
2018-07-06T03:55:33.615Z,15.70
2018-07-06T03:58:26.799Z,15.70
2018-07-06T04:01:20.157Z,15.60
2018-07-06T04:04:13.210Z,15.70
2018-07-06T04:07:06.575Z,15.70
2018-07-06T04:09:59.837Z,15.70
2018-07-06T04:12:53.039Z,15.70
2018-07-06T04:15:46.270Z,15.70
2018-07-06T04:18:39.538Z,15.70
2018-07-06T04:21:32.713Z,15.70
2018-07-06T04:24:25.996Z,15.70
2018-07-06T04:27:19.057Z,15.60
2018-07-06T04:30:12.200Z,15.60
2018-07-06T04:33:05.360Z,15.60
2018-07-06T04:35:58.624Z,15.50
2018-07-06T04:38:51.811Z,15.50
2018-07-06T04:41:44.952Z,15.50
2018-07-06T04:44:38.102Z,15.50
2018-07-06T04:47:31.784Z,15.50
2018-07-06T04:50:24.736Z,15.50
2018-07-06T04:53:18.020Z,15.50
2018-07-06T04:56:11.101Z,15.50
2018-07-06T04:59:04.620Z,15.50
2018-07-06T05:01:57.885Z,15.50
2018-07-06T05:04:51.165Z,15.50
2018-07-06T05:07:44.368Z,15.50
2018-07-06T05:10:37.874Z,15.50
2018-07-06T05:13:31.047Z,15.60
2018-07-06T05:16:24.194Z,15.60
2018-07-06T05:19:17.255Z,15.50
2018-07-06T05:22:10.310Z,15.60
2018-07-06T05:25:03.506Z,15.60
2018-07-06T05:27:56.732Z,15.50
2018-07-06T05:30:49.996Z,15.50
2018-07-06T05:33:43.254Z,15.50
2018-07-06T05:36:36.742Z,15.50
2018-07-06T05:39:29.861Z,15.50
2018-07-06T05:42:22.875Z,15.60
2018-07-06T05:45:16.404Z,15.60
2018-07-06T05:48:09.665Z,15.70
2018-07-06T05:51:02.830Z,15.80
2018-07-06T05:53:56.188Z,15.80
2018-07-06T05:56:49.553Z,15.80
2018-07-06T05:59:42.620Z,16.00
2018-07-06T06:02:35.975Z,16.00
2018-07-06T06:05:29.035Z,16.10
2018-07-06T06:08:09.916Z,16.20
2018-07-06T06:10:45.629Z,16.50
2018-07-06T06:13:21.822Z,16.60
2018-07-06T06:15:58.019Z,16.40
2018-07-06T06:18:33.967Z,16.40
2018-07-06T06:21:09.846Z,16.40
2018-07-06T06:23:46.021Z,17.20
2018-07-06T06:26:30.087Z,17.80
2018-07-06T06:29:06.278Z,17.50
2018-07-06T06:31:42.514Z,17.80
2018-07-06T06:34:18.569Z,17.70
2018-07-06T06:36:54.642Z,18.10
2018-07-06T06:39:30.977Z,18.30
2018-07-06T06:42:07.092Z,18.30
2018-07-06T06:44:43.221Z,18.10
2018-07-06T06:47:19.250Z,18.20
2018-07-06T06:49:55.562Z,18.50
2018-07-06T06:52:31.684Z,18.50
2018-07-06T06:55:07.884Z,18.60
2018-07-06T06:57:43.887Z,19.00
2018-07-06T07:00:21.151Z,18.80
2018-07-06T07:02:56.196Z,18.90
2018-07-06T07:05:32.376Z,18.90
2018-07-06T07:08:08.299Z,18.60
2018-07-06T07:10:44.575Z,18.80
2018-07-06T07:13:20.909Z,19.10
2018-07-06T07:15:56.921Z,19.30
2018-07-06T07:18:33.118Z,19.10
2018-07-06T07:21:09.349Z,19.20
2018-07-06T07:23:45.751Z,19.30
2018-07-06T07:26:21.866Z,19.10
2018-07-06T07:28:58.106Z,19.20
2018-07-06T07:31:34.229Z,19.10
2018-07-06T07:34:10.579Z,19.20
2018-07-06T07:36:46.860Z,19.70
2018-07-06T07:39:22.987Z,19.90
2018-07-06T07:41:59.084Z,20.00
2018-07-06T07:44:35.469Z,20.30
2018-07-06T07:47:11.623Z,20.50
2018-07-06T07:49:47.566Z,20.40
2018-07-06T07:54:33.329Z,20.50
2018-07-06T07:57:09.365Z,20.70
2018-07-06T07:59:45.904Z,20.60
2018-07-06T08:02:21.863Z,20.30
2018-07-06T08:04:58.107Z,20.40
2018-07-06T08:07:34.257Z,20.20
2018-07-06T08:10:10.547Z,20.10
2018-07-06T08:12:46.670Z,20.00
2018-07-06T08:15:22.661Z,19.60
2018-07-06T08:17:59.088Z,19.50
2018-07-06T08:20:35.381Z,19.50
2018-07-06T08:23:11.407Z,19.50
2018-07-06T08:25:47.500Z,19.40
2018-07-06T08:28:23.593Z,19.20
2018-07-06T08:30:59.723Z,19.10
2018-07-06T08:33:41.186Z,19.10
2018-07-06T08:36:28.958Z,19.30
2018-07-06T08:39:05.230Z,19.20
2018-07-06T08:41:40.933Z,19.20
2018-07-06T08:44:16.957Z,19.40
2018-07-06T08:46:53.110Z,19.30
2018-07-06T08:49:29.043Z,19.50
2018-07-06T08:52:04.873Z,19.60
2018-07-06T08:54:40.646Z,19.90
2018-07-06T08:57:16.583Z,19.90
2018-07-06T08:59:53.335Z,19.90
2018-07-06T09:02:29.549Z,20.20
2018-07-06T09:05:05.930Z,20.30
2018-07-06T09:07:41.963Z,20.20
2018-07-06T09:10:18.199Z,20.40
2018-07-06T09:12:54.373Z,20.80
2018-07-06T09:15:30.610Z,21.30
2018-07-06T09:18:06.586Z,21.50
2018-07-06T09:20:42.682Z,22.10
2018-07-06T09:23:18.603Z,22.70
2018-07-06T09:25:54.583Z,22.50
2018-07-06T09:28:30.268Z,23.00
2018-07-06T09:31:06.210Z,23.20
2018-07-06T09:33:42.430Z,23.20
2018-07-06T09:36:18.686Z,23.40
2018-07-06T09:38:54.849Z,23.70
2018-07-06T09:41:30.869Z,22.30
2018-07-06T09:44:07.539Z,21.80
2018-07-06T09:46:43.599Z,22.60
2018-07-06T09:49:19.761Z,23.70
2018-07-06T09:51:55.852Z,23.40
2018-07-06T09:54:31.718Z,22.40
2018-07-06T09:57:07.722Z,21.90
2018-07-06T09:59:43.623Z,21.60
2018-07-06T10:02:19.648Z,21.30
2018-07-06T10:04:55.754Z,21.30
2018-07-06T10:07:31.705Z,21.40
2018-07-06T10:10:07.796Z,21.50
2018-07-06T10:12:43.823Z,21.20
2018-07-06T10:15:19.940Z,21.40
2018-07-06T10:17:55.886Z,21.70
2018-07-06T10:20:31.941Z,22.10
2018-07-06T10:23:07.909Z,22.10
2018-07-06T10:25:44.327Z,21.60
2018-07-06T10:29:33.373Z,22.00
2018-07-06T10:32:15.092Z,21.70
2018-07-06T10:34:51.166Z,21.80
2018-07-06T10:37:27.514Z,21.80
2018-07-06T10:40:03.677Z,22.00
2018-07-06T10:42:39.513Z,22.20
2018-07-06T10:45:15.526Z,22.10
2018-07-06T10:47:51.409Z,22.40
2018-07-06T10:50:27.290Z,22.50
2018-07-06T10:53:03.322Z,22.70
2018-07-06T10:55:39.049Z,22.50
2018-07-06T10:58:15.060Z,22.90
2018-07-06T11:00:51.101Z,23.30
2018-07-06T11:03:27.271Z,23.50
2018-07-06T11:06:03.422Z,23.20
2018-07-06T11:08:39.357Z,23.00
2018-07-06T11:11:15.640Z,23.30
2018-07-06T11:13:51.808Z,23.30
2018-07-06T11:16:28.035Z,23.80
2018-07-06T11:19:04.227Z,24.00
2018-07-06T11:21:40.541Z,24.10
2018-07-06T11:24:16.883Z,23.50
2018-07-06T11:26:52.866Z,23.20
2018-07-06T11:29:29.072Z,22.90
2018-07-06T11:32:05.433Z,23.50
2018-07-06T11:34:41.366Z,23.80
2018-07-06T11:37:17.425Z,23.70
2018-07-06T11:39:53.381Z,24.10
2018-07-06T11:42:29.628Z,24.30
2018-07-06T11:45:05.579Z,24.40
2018-07-06T11:47:41.533Z,25.00
2018-07-06T11:50:17.554Z,24.50
2018-07-06T11:52:53.530Z,24.50
2018-07-06T11:55:29.340Z,24.60
2018-07-06T11:58:05.370Z,25.00
2018-07-06T12:00:41.201Z,24.90
2018-07-06T12:03:17.548Z,24.50
2018-07-06T12:05:53.458Z,24.20
2018-07-06T12:08:29.569Z,24.60
2018-07-06T12:11:06.009Z,25.00
2018-07-06T12:13:42.449Z,25.00
2018-07-06T12:16:18.303Z,25.10
2018-07-06T12:18:54.338Z,25.30
2018-07-06T12:21:30.396Z,24.80
2018-07-06T12:26:42.002Z,24.70
2018-07-06T12:29:17.719Z,24.80
2018-07-06T12:31:53.607Z,25.20
2018-07-06T12:34:29.336Z,25.00
2018-07-06T12:37:05.571Z,25.10
2018-07-06T12:42:16.974Z,25.20
2018-07-06T12:44:53.078Z,25.30
2018-07-06T12:47:29.086Z,25.50
2018-07-06T12:50:05.386Z,25.70
2018-07-06T12:52:41.262Z,25.10
2018-07-06T12:55:17.559Z,24.60
2018-07-06T12:57:53.566Z,24.60
2018-07-06T13:00:29.508Z,24.80
2018-07-06T13:03:05.332Z,24.60
2018-07-06T13:05:41.298Z,24.60
2018-07-06T13:08:17.228Z,25.10
2018-07-06T13:10:53.046Z,25.30
2018-07-06T13:13:29.057Z,25.20
2018-07-06T13:16:05.202Z,25.60
2018-07-06T13:18:41.238Z,25.80
2018-07-06T13:21:17.286Z,25.20
2018-07-06T13:23:53.202Z,24.70
2018-07-06T13:26:29.219Z,24.90
2018-07-06T13:29:05.446Z,24.80
2018-07-06T13:31:41.713Z,25.20
2018-07-06T13:34:17.774Z,24.40
2018-07-06T13:36:53.585Z,24.20
2018-07-06T13:39:29.500Z,24.20
2018-07-06T13:42:05.556Z,24.40
2018-07-06T13:44:41.507Z,24.80
2018-07-06T13:47:17.710Z,25.10
2018-07-06T13:49:53.833Z,25.40
2018-07-06T13:52:29.874Z,24.90
2018-07-06T13:55:05.796Z,24.50
2018-07-06T13:57:41.475Z,24.00
2018-07-06T14:00:17.391Z,23.90
2018-07-06T14:02:53.618Z,23.50
2018-07-06T14:05:30.036Z,23.30
2018-07-06T14:08:06.068Z,22.80
2018-07-06T14:10:42.011Z,22.10
2018-07-06T14:13:17.955Z,22.30
2018-07-06T14:15:54.040Z,21.90
2018-07-06T14:18:30.246Z,21.50
2018-07-06T14:21:06.369Z,21.40
2018-07-06T14:23:42.279Z,21.00
2018-07-06T14:26:18.402Z,21.10
2018-07-06T14:28:54.419Z,21.10
2018-07-06T14:31:30.474Z,21.00
2018-07-06T14:34:06.328Z,20.90
2018-07-06T14:36:42.548Z,20.70
2018-07-06T14:39:18.448Z,20.60
2018-07-06T14:41:54.468Z,20.70
2018-07-06T14:44:30.438Z,20.80
2018-07-06T14:47:06.657Z,20.50
2018-07-06T14:49:42.853Z,20.30
2018-07-06T14:52:18.969Z,20.30
2018-07-06T14:54:55.138Z,20.40
2018-07-06T14:57:31.074Z,20.30
2018-07-06T15:00:07.241Z,20.10
2018-07-06T15:02:43.416Z,20.00
2018-07-06T15:05:19.385Z,19.90
2018-07-06T15:10:30.615Z,20.00
2018-07-06T15:13:06.856Z,20.00
2018-07-06T15:15:42.769Z,20.30
2018-07-06T15:18:19.034Z,20.20
2018-07-06T15:20:54.981Z,20.00
2018-07-06T15:23:31.169Z,19.80
2018-07-06T15:26:07.322Z,19.60
2018-07-06T15:28:43.295Z,19.50
2018-07-06T15:31:19.406Z,19.50
2018-07-06T15:33:55.728Z,19.50
2018-07-06T15:36:31.750Z,19.60
2018-07-06T15:39:08.055Z,19.80
2018-07-06T15:41:44.205Z,19.70
2018-07-06T15:44:20.149Z,19.60
2018-07-06T15:46:56.026Z,19.50
2018-07-06T15:49:32.389Z,19.40
2018-07-06T15:52:08.489Z,19.30
2018-07-06T15:54:44.388Z,19.40
2018-07-06T15:57:20.573Z,19.40
2018-07-06T15:59:56.898Z,19.20
2018-07-06T16:02:32.902Z,19.20
2018-07-06T16:05:09.009Z,19.00
2018-07-06T16:07:44.952Z,19.10
2018-07-06T16:10:21.115Z,19.10
2018-07-06T16:12:57.179Z,19.20
2018-07-06T16:15:33.245Z,19.10
2018-07-06T16:18:09.458Z,18.90
2018-07-06T16:20:46.079Z,19.00
2018-07-06T16:23:22.107Z,19.20
2018-07-06T16:25:58.434Z,19.20
2018-07-06T16:28:34.631Z,19.10
2018-07-06T16:31:10.688Z,19.00
2018-07-06T16:33:47.085Z,18.90
2018-07-06T16:36:23.165Z,18.90
2018-07-06T16:38:59.550Z,18.90
2018-07-06T16:41:35.508Z,18.90
2018-07-06T16:44:11.528Z,18.90
2018-07-06T16:46:47.818Z,18.80
2018-07-06T16:49:23.956Z,18.70
2018-07-06T16:51:59.934Z,18.50
2018-07-06T16:54:35.998Z,18.50
2018-07-06T16:57:12.027Z,18.50
2018-07-06T16:59:48.226Z,18.50
2018-07-06T17:02:24.462Z,18.40
2018-07-06T17:05:00.388Z,18.40
2018-07-06T17:07:36.573Z,18.40
2018-07-06T17:10:12.640Z,18.30
2018-07-06T17:12:48.663Z,18.20
2018-07-06T17:15:25.726Z,18.10
2018-07-06T17:18:01.849Z,18.00
2018-07-06T17:20:38.085Z,17.90
2018-07-06T17:23:14.031Z,17.80
2018-07-06T17:25:49.988Z,17.70
2018-07-06T17:28:25.980Z,17.60
2018-07-06T17:31:01.928Z,17.60
2018-07-06T17:33:38.372Z,17.50
2018-07-06T17:36:14.167Z,17.30
2018-07-06T17:38:50.196Z,17.10
2018-07-06T17:41:26.129Z,17.00
2018-07-06T17:44:02.347Z,17.00
2018-07-06T17:46:38.618Z,17.00
2018-07-06T17:49:14.670Z,17.00
2018-07-06T17:51:50.665Z,17.00
2018-07-06T17:54:26.775Z,16.90
2018-07-06T17:57:02.789Z,16.80
2018-07-06T17:59:39.001Z,16.70
2018-07-06T18:02:15.085Z,16.70
2018-07-06T18:04:51.128Z,16.80
2018-07-06T18:07:27.306Z,16.70
2018-07-06T18:10:03.108Z,16.50
2018-07-06T18:12:39.412Z,16.40
2018-07-06T18:15:15.875Z,16.40
2018-07-06T18:17:52.035Z,16.20
2018-07-06T18:20:28.515Z,16.30
2018-07-06T18:23:04.835Z,16.10
2018-07-06T18:25:40.802Z,16.10
2018-07-06T18:28:17.081Z,16.00
2018-07-06T18:30:53.117Z,15.90
2018-07-06T18:33:29.366Z,15.90
2018-07-06T18:36:05.586Z,15.80
2018-07-06T18:38:41.702Z,15.70
2018-07-06T18:41:17.782Z,15.70
2018-07-06T18:43:54.232Z,15.70
2018-07-06T18:46:30.226Z,15.70
2018-07-06T18:49:06.169Z,15.60
2018-07-06T18:51:42.294Z,15.60
2018-07-06T18:54:18.235Z,15.60
2018-07-06T18:56:54.389Z,15.50
2018-07-06T18:59:30.609Z,15.50
2018-07-06T19:02:07.099Z,15.50
2018-07-06T19:04:43.209Z,15.40
2018-07-06T19:07:19.271Z,15.40
2018-07-06T19:09:55.202Z,15.30
2018-07-06T19:12:31.525Z,15.30
2018-07-06T19:15:07.788Z,15.30
2018-07-06T19:17:44.050Z,15.20
2018-07-06T19:20:20.462Z,15.20
2018-07-06T19:22:56.808Z,15.10
2018-07-06T19:25:32.773Z,15.00
2018-07-06T19:28:08.906Z,15.00
2018-07-06T19:30:48.068Z,14.90
2018-07-06T19:33:24.491Z,14.90
2018-07-06T19:36:00.726Z,14.90
2018-07-06T19:38:36.805Z,14.80
2018-07-06T19:41:12.915Z,14.70
2018-07-06T19:43:48.749Z,14.70
2018-07-06T19:46:24.648Z,14.70
2018-07-06T19:49:00.752Z,14.60
2018-07-06T19:51:36.735Z,14.50
2018-07-06T19:54:12.628Z,14.50
2018-07-06T19:56:48.969Z,14.50
2018-07-06T19:59:25.490Z,14.50
2018-07-06T20:04:37.186Z,14.40
2018-07-06T20:07:13.170Z,14.40
2018-07-06T20:09:49.556Z,14.30
2018-07-06T20:12:25.558Z,14.30
2018-07-06T20:15:01.871Z,14.20
2018-07-06T20:17:37.770Z,14.20
2018-07-06T20:20:13.948Z,14.20
2018-07-06T20:22:50.096Z,14.20
2018-07-06T20:25:26.487Z,14.20
2018-07-06T20:28:02.745Z,14.10
2018-07-06T20:30:38.699Z,14.10
2018-07-06T20:33:14.691Z,14.00
2018-07-06T20:35:51.071Z,14.00
2018-07-06T20:38:27.149Z,14.00
2018-07-06T20:41:03.264Z,13.90
2018-07-06T20:43:39.330Z,14.00
2018-07-06T20:46:15.385Z,13.90
2018-07-06T20:48:51.437Z,13.90
2018-07-06T20:51:27.506Z,13.90
2018-07-06T20:54:03.361Z,13.80
2018-07-06T20:56:39.516Z,13.80
2018-07-06T20:59:15.586Z,13.90
2018-07-06T21:01:51.627Z,13.90
2018-07-06T21:04:27.955Z,13.90
2018-07-06T21:07:03.989Z,13.90
2018-07-06T21:09:40.220Z,13.90
2018-07-06T21:12:16.287Z,13.90
2018-07-06T21:14:52.238Z,13.80
2018-07-06T21:17:28.431Z,13.80
2018-07-06T21:20:04.529Z,13.70
2018-07-06T21:22:40.832Z,13.80
2018-07-06T21:25:16.727Z,13.70
2018-07-06T21:27:52.720Z,13.70
2018-07-06T21:30:28.656Z,13.70
2018-07-06T21:33:04.759Z,13.60
2018-07-06T21:35:40.798Z,13.60
2018-07-06T21:38:16.957Z,13.50
2018-07-06T21:40:53.108Z,13.50
2018-07-06T21:43:29.197Z,13.50
2018-07-06T21:46:05.419Z,13.50
2018-07-06T21:48:41.521Z,13.50
2018-07-06T21:51:17.668Z,13.50
2018-07-06T21:53:53.943Z,13.50
2018-07-06T21:56:29.929Z,13.50
2018-07-06T21:59:05.979Z,13.40
2018-07-06T22:01:42.023Z,13.40
2018-07-06T22:04:18.366Z,13.40
2018-07-06T22:06:54.652Z,13.30
2018-07-06T22:09:30.632Z,13.40
2018-07-06T22:12:07.011Z,13.30
2018-07-06T22:14:43.038Z,13.30
2018-07-06T22:17:19.099Z,13.30
2018-07-06T22:19:55.360Z,13.30
2018-07-06T22:22:31.679Z,13.30
2018-07-06T22:25:07.996Z,13.20
2018-07-06T22:27:44.016Z,13.20
2018-07-06T22:32:55.379Z,13.20
2018-07-06T22:35:31.338Z,13.10
2018-07-06T22:38:07.717Z,13.10
2018-07-06T22:40:43.980Z,13.10
2018-07-06T22:43:19.931Z,13.00
2018-07-06T22:45:56.346Z,13.10
2018-07-06T22:48:32.631Z,13.00
2018-07-06T22:51:08.905Z,13.00
2018-07-06T22:53:45.138Z,13.00
2018-07-06T22:56:21.119Z,12.90
2018-07-06T22:58:57.060Z,12.90
2018-07-06T23:01:33.146Z,13.00
2018-07-06T23:04:09.603Z,12.90
2018-07-06T23:06:45.799Z,12.90
2018-07-06T23:09:21.969Z,12.90
2018-07-06T23:11:58.166Z,12.80
2018-07-06T23:14:34.081Z,12.80
2018-07-06T23:17:10.307Z,12.80
2018-07-06T23:19:47.009Z,12.80
2018-07-06T23:22:37.020Z,12.80
2018-07-06T23:25:13.277Z,12.70
2018-07-06T23:27:49.477Z,12.70
2018-07-06T23:30:26.046Z,12.80
2018-07-06T23:33:03.129Z,12.70
2018-07-06T23:35:39.447Z,12.70
2018-07-06T23:38:15.794Z,12.70
2018-07-06T23:40:52.076Z,12.70
2018-07-06T23:43:28.290Z,12.70
2018-07-06T23:46:04.514Z,12.70
2018-07-06T23:48:40.930Z,12.70
2018-07-06T23:51:17.189Z,12.60
2018-07-06T23:53:53.379Z,12.70
2018-07-06T23:56:29.720Z,12.70
2018-07-06T23:59:06.006Z,12.70
